< < Back
Terminal Aerodrome Forecast


Current Version              Previous Versions:   1  2  3  4  5  6  7  8  9  

Terminal Aerodrome Forecast

269
FTUS42 KFFC 191700
TAFFTY
TAF
KFTY 191730Z 1918/2018 10008KT P6SM SCT035 BKN050
     FM200100 08003KT P6SM FEW060
     FM200900 09004KT P6SM BKN015
     FM201500 08009G15KT P6SM SCT035=

Latest METAR

256
SAUS70 KWBC 192000 RRC
MTRFTY
METAR KFTY 191953Z 06010G15KT 10SM BKN042 BKN050 28/17 A3005 RMK AO2
SLP167 T02830172


USA.gov is the U.S. government's official web portal to all federal, state and local government web resources and services.